sensor_id;sensor_type;location;lat;lon;timestamp;temperature;humidity
12688;DHT22;6408;59.388;17.798;2023-09-08T00:00:41;15.60;99.90
12688;DHT22;6408;59.388;17.798;2023-09-08T00:16:45;15.50;99.90
12688;DHT22;6408;59.388;17.798;2023-09-08T00:19:42;15.50;99.90
12688;DHT22;6408;59.388;17.798;2023-09-08T00:52:51;15.60;99.90
12688;DHT22;6408;59.388;17.798;2023-09-08T01:18:12;15.30;99.90
12688;DHT22;6408;59.388;17.798;2023-09-08T01:30:25;15.20;99.90
12688;DHT22;6408;59.388;17.798;2023-09-08T01:32:56;15.20;99.90
12688;DHT22;6408;59.388;17.798;2023-09-08T01:39:23;15.10;99.90
12688;DHT22;6408;59.388;17.798;2023-09-08T01:42:36;15.10;99.90
12688;DHT22;6408;59.388;17.798;2023-09-08T01:45:33;15.10;99.90
12688;DHT22;6408;59.388;17.798;2023-09-08T01:48:20;15.10;99.90
12688;DHT22;6408;59.388;17.798;2023-09-08T01:50:54;15.10;99.90
12688;DHT22;6408;59.388;17.798;2023-09-08T01:53:34;15.20;99.90
12688;DHT22;6408;59.388;17.798;2023-09-08T01:56:10;15.20;99.90
12688;DHT22;6408;59.388;17.798;2023-09-08T01:59:11;15.20;99.90
12688;DHT22;6408;59.388;17.798;2023-09-08T02:02:11;15.20;99.90
12688;DHT22;6408;59.388;17.798;2023-09-08T02:04:42;15.20;99.90
12688;DHT22;6408;59.388;17.798;2023-09-08T02:07:13;15.20;99.90
12688;DHT22;6408;59.388;17.798;2023-09-08T02:09:54;15.30;99.90
12688;DHT22;6408;59.388;17.798;2023-09-08T02:12:24;15.30;99.90
12688;DHT22;6408;59.388;17.798;2023-09-08T02:15:11;15.30;99.90
12688;DHT22;6408;59.388;17.798;2023-09-08T02:17:57;15.30;99.90
12688;DHT22;6408;59.388;17.798;2023-09-08T02:20:43;15.30;99.90
12688;DHT22;6408;59.388;17.798;2023-09-08T02:23:11;15.30;99.90
12688;DHT22;6408;59.388;17.798;2023-09-08T02:25:49;15.30;99.90
12688;DHT22;6408;59.388;17.798;2023-09-08T02:28:33;15.40;99.90
12688;DHT22;6408;59.388;17.798;2023-09-08T02:37:58;15.30;99.90
12688;DHT22;6408;59.388;17.798;2023-09-08T02:40:35;15.40;99.90
12688;DHT22;6408;59.388;17.798;2023-09-08T02:43:03;15.40;99.90
12688;DHT22;6408;59.388;17.798;2023-09-08T02:46:06;15.30;99.90
12688;DHT22;6408;59.388;17.798;2023-09-08T02:49:14;15.40;99.90
12688;DHT22;6408;59.388;17.798;2023-09-08T02:52:15;15.30;99.90
12688;DHT22;6408;59.388;17.798;2023-09-08T02:59:31;15.20;99.90
12688;DHT22;6408;59.388;17.798;2023-09-08T03:02:32;15.30;99.90
12688;DHT22;6408;59.388;17.798;2023-09-08T03:05:33;15.30;99.90
12688;DHT22;6408;59.388;17.798;2023-09-08T03:08:24;15.30;99.90
12688;DHT22;6408;59.388;17.798;2023-09-08T03:14:47;15.10;99.90
12688;DHT22;6408;59.388;17.798;2023-09-08T03:17:15;15.20;99.90
12688;DHT22;6408;59.388;17.798;2023-09-08T03:20:21;15.20;99.90
12688;DHT22;6408;59.388;17.798;2023-09-08T03:23:12;15.20;99.90
12688;DHT22;6408;59.388;17.798;2023-09-08T03:25:55;15.10;99.90
12688;DHT22;6408;59.388;17.798;2023-09-08T03:31:52;15.20;99.90
12688;DHT22;6408;59.388;17.798;2023-09-08T03:41:02;15.20;99.90
12688;DHT22;6408;59.388;17.798;2023-09-08T03:43:51;15.10;99.90
12688;DHT22;6408;59.388;17.798;2023-09-08T03:46:35;15.20;99.90
12688;DHT22;6408;59.388;17.798;2023-09-08T03:49:23;15.20;99.90
12688;DHT22;6408;59.388;17.798;2023-09-08T03:52:00;15.20;99.90
12688;DHT22;6408;59.388;17.798;2023-09-08T04:01:28;15.20;99.90
12688;DHT22;6408;59.388;17.798;2023-09-08T04:10:51;15.20;99.90
12688;DHT22;6408;59.388;17.798;2023-09-08T04:13:32;15.20;99.90
12688;DHT22;6408;59.388;17.798;2023-09-08T04:16:01;15.30;99.90
12688;DHT22;6408;59.388;17.798;2023-09-08T04:18:31;15.30;99.90
12688;DHT22;6408;59.388;17.798;2023-09-08T04:21:21;15.40;99.90
12688;DHT22;6408;59.388;17.798;2023-09-08T04:23:49;15.40;99.90
12688;DHT22;6408;59.388;17.798;2023-09-08T04:26:39;15.40;99.90
12688;DHT22;6408;59.388;17.798;2023-09-08T04:29:07;15.40;99.90
12688;DHT22;6408;59.388;17.798;2023-09-08T04:31:35;15.50;99.90
12688;DHT22;6408;59.388;17.798;2023-09-08T04:34:03;15.50;99.90
12688;DHT22;6408;59.388;17.798;2023-09-08T04:39:49;15.60;99.90
12688;DHT22;6408;59.388;17.798;2023-09-08T04:45:49;15.80;99.90
12688;DHT22;6408;59.388;17.798;2023-09-08T04:48:17;15.80;99.90
12688;DHT22;6408;59.388;17.798;2023-09-08T04:50:51;15.80;99.90
12688;DHT22;6408;59.388;17.798;2023-09-08T04:53:22;15.90;99.90
12688;DHT22;6408;59.388;17.798;2023-09-08T04:56:06;15.90;99.90
12688;DHT22;6408;59.388;17.798;2023-09-08T04:58:53;15.90;99.90
12688;DHT22;6408;59.388;17.798;2023-09-08T05:04:41;16.10;99.90
12688;DHT22;6408;59.388;17.798;2023-09-08T05:07:19;16.00;99.90
12688;DHT22;6408;59.388;17.798;2023-09-08T05:09:50;16.00;99.90
12688;DHT22;6408;59.388;17.798;2023-09-08T05:12:24;16.10;99.90
12688;DHT22;6408;59.388;17.798;2023-09-08T05:14:58;16.10;99.90
12688;DHT22;6408;59.388;17.798;2023-09-08T05:20:38;16.10;99.90
12688;DHT22;6408;59.388;17.798;2023-09-08T05:23:05;16.20;99.90
12688;DHT22;6408;59.388;17.798;2023-09-08T05:35:46;16.60;99.90
12688;DHT22;6408;59.388;17.798;2023-09-08T05:38:14;16.70;99.90
12688;DHT22;6408;59.388;17.798;2023-09-08T05:40:41;16.70;99.90
12688;DHT22;6408;59.388;17.798;2023-09-08T05:43:08;16.70;99.90
12688;DHT22;6408;59.388;17.798;2023-09-08T05:45:36;16.60;99.90
12688;DHT22;6408;59.388;17.798;2023-09-08T05:48:03;16.50;99.90
12688;DHT22;6408;59.388;17.798;2023-09-08T05:50:30;16.60;99.90
12688;DHT22;6408;59.388;17.798;2023-09-08T05:52:58;16.50;99.90
12688;DHT22;6408;59.388;17.798;2023-09-08T05:55:26;16.60;99.90
12688;DHT22;6408;59.388;17.798;2023-09-08T05:57:53;16.60;99.90
12688;DHT22;6408;59.388;17.798;2023-09-08T06:00:20;16.70;99.90
12688;DHT22;6408;59.388;17.798;2023-09-08T06:02:47;16.80;99.90
12688;DHT22;6408;59.388;17.798;2023-09-08T06:05:14;16.80;99.90
12688;DHT22;6408;59.388;17.798;2023-09-08T06:07:41;16.70;99.90
12688;DHT22;6408;59.388;17.798;2023-09-08T06:10:11;16.80;99.90
12688;DHT22;6408;59.388;17.798;2023-09-08T06:12:38;16.80;99.90
12688;DHT22;6408;59.388;17.798;2023-09-08T06:15:06;16.80;99.90
12688;DHT22;6408;59.388;17.798;2023-09-08T06:17:33;16.80;99.90
12688;DHT22;6408;59.388;17.798;2023-09-08T06:20:00;16.80;99.90
12688;DHT22;6408;59.388;17.798;2023-09-08T06:22:27;16.80;99.90
12688;DHT22;6408;59.388;17.798;2023-09-08T06:24:54;16.80;99.90
12688;DHT22;6408;59.388;17.798;2023-09-08T06:27:22;16.80;99.90
12688;DHT22;6408;59.388;17.798;2023-09-08T06:29:49;16.90;99.90
12688;DHT22;6408;59.388;17.798;2023-09-08T06:32:16;16.90;99.90
12688;DHT22;6408;59.388;17.798;2023-09-08T06:34:43;16.90;99.90
12688;DHT22;6408;59.388;17.798;2023-09-08T06:37:10;16.90;99.90
12688;DHT22;6408;59.388;17.798;2023-09-08T06:39:37;16.90;99.90
12688;DHT22;6408;59.388;17.798;2023-09-08T06:42:04;17.00;99.90
12688;DHT22;6408;59.388;17.798;2023-09-08T06:44:33;17.00;99.90
12688;DHT22;6408;59.388;17.798;2023-09-08T06:47:00;17.00;99.90
12688;DHT22;6408;59.388;17.798;2023-09-08T06:49:28;17.10;99.90
12688;DHT22;6408;59.388;17.798;2023-09-08T06:51:55;17.10;99.90
12688;DHT22;6408;59.388;17.798;2023-09-08T06:54:22;17.10;99.90
12688;DHT22;6408;59.388;17.798;2023-09-08T06:56:49;17.20;99.90
12688;DHT22;6408;59.388;17.798;2023-09-08T06:59:16;17.30;99.90
12688;DHT22;6408;59.388;17.798;2023-09-08T07:01:45;17.40;99.90
12688;DHT22;6408;59.388;17.798;2023-09-08T07:04:12;17.40;99.90
12688;DHT22;6408;59.388;17.798;2023-09-08T07:06:39;17.40;99.90
12688;DHT22;6408;59.388;17.798;2023-09-08T07:09:07;17.50;99.90
12688;DHT22;6408;59.388;17.798;2023-09-08T07:11:34;17.60;99.90
12688;DHT22;6408;59.388;17.798;2023-09-08T07:14:01;17.50;99.90
12688;DHT22;6408;59.388;17.798;2023-09-08T07:16:28;17.50;99.90
12688;DHT22;6408;59.388;17.798;2023-09-08T07:18:57;17.50;99.90
12688;DHT22;6408;59.388;17.798;2023-09-08T07:21:25;17.60;99.90
12688;DHT22;6408;59.388;17.798;2023-09-08T07:23:52;17.60;99.90
12688;DHT22;6408;59.388;17.798;2023-09-08T07:26:20;17.70;99.90
12688;DHT22;6408;59.388;17.798;2023-09-08T07:28:47;17.70;99.90
12688;DHT22;6408;59.388;17.798;2023-09-08T07:31:14;17.60;99.90
12688;DHT22;6408;59.388;17.798;2023-09-08T07:33:41;17.60;99.90
12688;DHT22;6408;59.388;17.798;2023-09-08T07:36:10;18.00;99.90
12688;DHT22;6408;59.388;17.798;2023-09-08T07:38:39;18.30;99.90
12688;DHT22;6408;59.388;17.798;2023-09-08T07:41:06;18.30;99.90
12688;DHT22;6408;59.388;17.798;2023-09-08T07:43:33;18.30;99.90
12688;DHT22;6408;59.388;17.798;2023-09-08T07:46:03;18.20;99.90
12688;DHT22;6408;59.388;17.798;2023-09-08T07:48:30;18.20;99.90
12688;DHT22;6408;59.388;17.798;2023-09-08T07:50:57;18.20;99.90
12688;DHT22;6408;59.388;17.798;2023-09-08T07:53:27;18.10;99.90
12688;DHT22;6408;59.388;17.798;2023-09-08T07:55:55;18.10;99.90
12688;DHT22;6408;59.388;17.798;2023-09-08T07:58:22;18.20;99.90
12688;DHT22;6408;59.388;17.798;2023-09-08T08:00:50;18.40;99.90
12688;DHT22;6408;59.388;17.798;2023-09-08T08:03:15;18.50;99.90
12688;DHT22;6408;59.388;17.798;2023-09-08T08:05:43;18.70;99.90
12688;DHT22;6408;59.388;17.798;2023-09-08T08:08:10;18.80;99.90
12688;DHT22;6408;59.388;17.798;2023-09-08T08:10:40;19.00;99.90
12688;DHT22;6408;59.388;17.798;2023-09-08T08:13:07;19.10;99.90
12688;DHT22;6408;59.388;17.798;2023-09-08T08:15:36;19.30;99.90
12688;DHT22;6408;59.388;17.798;2023-09-08T08:18:04;20.50;99.90
12688;DHT22;6408;59.388;17.798;2023-09-08T08:20:31;20.40;99.90
12688;DHT22;6408;59.388;17.798;2023-09-08T08:23:00;20.40;99.90
12688;DHT22;6408;59.388;17.798;2023-09-08T08:25:27;22.90;99.90
12688;DHT22;6408;59.388;17.798;2023-09-08T08:27:56;24.70;99.90
12688;DHT22;6408;59.388;17.798;2023-09-08T08:30:24;26.60;99.90
12688;DHT22;6408;59.388;17.798;2023-09-08T08:32:51;26.10;99.90
12688;DHT22;6408;59.388;17.798;2023-09-08T08:35:18;27.10;99.90
12688;DHT22;6408;59.388;17.798;2023-09-08T08:37:46;27.30;99.90
12688;DHT22;6408;59.388;17.798;2023-09-08T08:40:13;28.50;99.90
12688;DHT22;6408;59.388;17.798;2023-09-08T08:42:41;28.90;99.90
12688;DHT22;6408;59.388;17.798;2023-09-08T08:45:12;29.50;99.90
12688;DHT22;6408;59.388;17.798;2023-09-08T08:47:40;29.90;99.90
12688;DHT22;6408;59.388;17.798;2023-09-08T08:50:09;29.70;99.90
12688;DHT22;6408;59.388;17.798;2023-09-08T08:52:38;30.40;99.90
12688;DHT22;6408;59.388;17.798;2023-09-08T08:55:06;30.00;99.90
12688;DHT22;6408;59.388;17.798;2023-09-08T08:57:34;28.00;99.90
12688;DHT22;6408;59.388;17.798;2023-09-08T09:00:04;27.30;99.90
12688;DHT22;6408;59.388;17.798;2023-09-08T09:02:37;28.10;99.90
12688;DHT22;6408;59.388;17.798;2023-09-08T09:05:06;28.60;99.90
12688;DHT22;6408;59.388;17.798;2023-09-08T09:07:33;29.90;99.90
12688;DHT22;6408;59.388;17.798;2023-09-08T09:10:00;30.60;99.90
12688;DHT22;6408;59.388;17.798;2023-09-08T09:12:28;29.60;99.90
12688;DHT22;6408;59.388;17.798;2023-09-08T09:14:58;28.40;99.90
12688;DHT22;6408;59.388;17.798;2023-09-08T09:17:25;28.10;99.90
12688;DHT22;6408;59.388;17.798;2023-09-08T09:20:12;28.00;99.90
12688;DHT22;6408;59.388;17.798;2023-09-08T09:22:40;27.80;99.90
12688;DHT22;6408;59.388;17.798;2023-09-08T09:25:08;27.20;99.90
12688;DHT22;6408;59.388;17.798;2023-09-08T09:27:36;26.40;99.90
12688;DHT22;6408;59.388;17.798;2023-09-08T09:30:07;25.90;99.90
12688;DHT22;6408;59.388;17.798;2023-09-08T09:32:35;25.00;99.90
12688;DHT22;6408;59.388;17.798;2023-09-08T09:35:04;24.70;99.90
12688;DHT22;6408;59.388;17.798;2023-09-08T09:37:31;24.70;99.90
12688;DHT22;6408;59.388;17.798;2023-09-08T09:40:00;24.70;99.90
12688;DHT22;6408;59.388;17.798;2023-09-08T09:42:28;24.70;99.90
12688;DHT22;6408;59.388;17.798;2023-09-08T09:44:56;24.70;99.90
12688;DHT22;6408;59.388;17.798;2023-09-08T09:47:24;24.70;99.90
12688;DHT22;6408;59.388;17.798;2023-09-08T09:49:51;24.50;99.90
12688;DHT22;6408;59.388;17.798;2023-09-08T09:52:23;24.20;99.90
12688;DHT22;6408;59.388;17.798;2023-09-08T09:54:52;24.20;99.90
12688;DHT22;6408;59.388;17.798;2023-09-08T09:57:21;24.30;99.90
12688;DHT22;6408;59.388;17.798;2023-09-08T09:59:49;24.50;99.90
12688;DHT22;6408;59.388;17.798;2023-09-08T10:02:17;24.50;99.90
12688;DHT22;6408;59.388;17.798;2023-09-08T10:04:47;24.40;99.90
12688;DHT22;6408;59.388;17.798;2023-09-08T10:07:22;24.60;99.90
12688;DHT22;6408;59.388;17.798;2023-09-08T10:09:50;24.60;99.90
12688;DHT22;6408;59.388;17.798;2023-09-08T10:12:18;24.20;99.90
12688;DHT22;6408;59.388;17.798;2023-09-08T10:14:45;24.20;99.90
12688;DHT22;6408;59.388;17.798;2023-09-08T10:17:18;24.20;99.90
12688;DHT22;6408;59.388;17.798;2023-09-08T10:19:51;24.20;99.90
12688;DHT22;6408;59.388;17.798;2023-09-08T10:22:22;24.10;99.90
12688;DHT22;6408;59.388;17.798;2023-09-08T10:24:53;23.70;99.90
12688;DHT22;6408;59.388;17.798;2023-09-08T10:27:21;23.70;99.90
12688;DHT22;6408;59.388;17.798;2023-09-08T10:29:50;23.70;99.90
12688;DHT22;6408;59.388;17.798;2023-09-08T10:32:17;23.70;99.90
12688;DHT22;6408;59.388;17.798;2023-09-08T10:34:46;23.90;99.90
12688;DHT22;6408;59.388;17.798;2023-09-08T10:37:23;24.00;99.90
12688;DHT22;6408;59.388;17.798;2023-09-08T10:39:51;24.20;99.90
12688;DHT22;6408;59.388;17.798;2023-09-08T10:42:23;24.30;99.90
12688;DHT22;6408;59.388;17.798;2023-09-08T10:45:02;24.40;99.90
12688;DHT22;6408;59.388;17.798;2023-09-08T10:47:55;24.20;99.90
12688;DHT22;6408;59.388;17.798;2023-09-08T10:50:30;23.90;99.90
12688;DHT22;6408;59.388;17.798;2023-09-08T10:53:15;23.90;99.90
12688;DHT22;6408;59.388;17.798;2023-09-08T10:55:44;24.00;99.90
12688;DHT22;6408;59.388;17.798;2023-09-08T10:58:20;24.10;99.90
12688;DHT22;6408;59.388;17.798;2023-09-08T11:00:50;24.00;99.90
12688;DHT22;6408;59.388;17.798;2023-09-08T11:03:27;23.80;99.90
12688;DHT22;6408;59.388;17.798;2023-09-08T11:05:56;23.80;99.90
12688;DHT22;6408;59.388;17.798;2023-09-08T11:08:25;23.90;99.90
12688;DHT22;6408;59.388;17.798;2023-09-08T11:10:52;23.70;99.90
12688;DHT22;6408;59.388;17.798;2023-09-08T11:13:19;23.90;99.90
12688;DHT22;6408;59.388;17.798;2023-09-08T11:15:47;24.00;99.90
12688;DHT22;6408;59.388;17.798;2023-09-08T11:18:14;24.00;99.90
12688;DHT22;6408;59.388;17.798;2023-09-08T11:20:41;24.00;99.90
12688;DHT22;6408;59.388;17.798;2023-09-08T11:23:10;24.00;99.90
12688;DHT22;6408;59.388;17.798;2023-09-08T11:25:38;23.80;99.90
12688;DHT22;6408;59.388;17.798;2023-09-08T11:28:06;23.90;99.90
12688;DHT22;6408;59.388;17.798;2023-09-08T11:30:33;23.90;99.90
12688;DHT22;6408;59.388;17.798;2023-09-08T11:33:01;23.80;99.90
12688;DHT22;6408;59.388;17.798;2023-09-08T11:35:28;23.80;99.90
12688;DHT22;6408;59.388;17.798;2023-09-08T11:37:59;23.90;99.90
12688;DHT22;6408;59.388;17.798;2023-09-08T11:40:30;23.70;99.90
12688;DHT22;6408;59.388;17.798;2023-09-08T11:42:59;23.80;99.90
12688;DHT22;6408;59.388;17.798;2023-09-08T11:45:26;23.80;99.90
12688;DHT22;6408;59.388;17.798;2023-09-08T11:47:53;23.90;99.90
12688;DHT22;6408;59.388;17.798;2023-09-08T11:50:22;24.10;99.90
12688;DHT22;6408;59.388;17.798;2023-09-08T11:52:50;24.10;99.90
12688;DHT22;6408;59.388;17.798;2023-09-08T11:55:18;24.10;99.90
12688;DHT22;6408;59.388;17.798;2023-09-08T11:57:48;24.10;99.90
12688;DHT22;6408;59.388;17.798;2023-09-08T12:00:19;24.20;99.90
12688;DHT22;6408;59.388;17.798;2023-09-08T12:02:48;24.00;99.90
12688;DHT22;6408;59.388;17.798;2023-09-08T12:05:21;23.90;99.90
12688;DHT22;6408;59.388;17.798;2023-09-08T12:07:49;24.00;99.90
12688;DHT22;6408;59.388;17.798;2023-09-08T12:10:17;24.00;99.90
12688;DHT22;6408;59.388;17.798;2023-09-08T12:12:45;23.90;99.90
12688;DHT22;6408;59.388;17.798;2023-09-08T12:15:32;23.80;99.90
12688;DHT22;6408;59.388;17.798;2023-09-08T12:18:00;23.80;99.90
12688;DHT22;6408;59.388;17.798;2023-09-08T12:20:27;23.90;99.90
12688;DHT22;6408;59.388;17.798;2023-09-08T12:23:01;23.90;99.90
12688;DHT22;6408;59.388;17.798;2023-09-08T12:25:28;23.90;99.90
12688;DHT22;6408;59.388;17.798;2023-09-08T12:27:57;24.00;99.90
12688;DHT22;6408;59.388;17.798;2023-09-08T12:30:24;23.90;99.90
12688;DHT22;6408;59.388;17.798;2023-09-08T12:32:58;24.00;99.90
12688;DHT22;6408;59.388;17.798;2023-09-08T12:35:26;24.00;99.90
12688;DHT22;6408;59.388;17.798;2023-09-08T12:37:59;24.00;99.90
12688;DHT22;6408;59.388;17.798;2023-09-08T12:40:27;24.00;99.90
12688;DHT22;6408;59.388;17.798;2023-09-08T12:42:55;24.00;99.90
12688;DHT22;6408;59.388;17.798;2023-09-08T12:45:25;24.00;99.90
12688;DHT22;6408;59.388;17.798;2023-09-08T12:47:52;23.90;99.90
12688;DHT22;6408;59.388;17.798;2023-09-08T12:50:22;23.70;99.90
12688;DHT22;6408;59.388;17.798;2023-09-08T12:52:49;23.70;99.90
12688;DHT22;6408;59.388;17.798;2023-09-08T12:55:16;23.90;99.90
12688;DHT22;6408;59.388;17.798;2023-09-08T12:57:43;24.00;99.90
12688;DHT22;6408;59.388;17.798;2023-09-08T13:00:11;24.00;99.90
12688;DHT22;6408;59.388;17.798;2023-09-08T13:02:39;24.00;99.90
12688;DHT22;6408;59.388;17.798;2023-09-08T13:05:07;24.10;99.90
12688;DHT22;6408;59.388;17.798;2023-09-08T13:07:35;24.10;99.90
12688;DHT22;6408;59.388;17.798;2023-09-08T13:10:03;24.10;99.90
12688;DHT22;6408;59.388;17.798;2023-09-08T13:12:30;24.20;99.90
12688;DHT22;6408;59.388;17.798;2023-09-08T13:14:58;24.30;99.90
12688;DHT22;6408;59.388;17.798;2023-09-08T13:17:26;24.40;99.90
12688;DHT22;6408;59.388;17.798;2023-09-08T13:19:53;24.40;99.90
12688;DHT22;6408;59.388;17.798;2023-09-08T13:22:20;24.40;99.90
12688;DHT22;6408;59.388;17.798;2023-09-08T13:24:48;24.30;99.90
12688;DHT22;6408;59.388;17.798;2023-09-08T13:27:15;24.20;99.90
12688;DHT22;6408;59.388;17.798;2023-09-08T13:29:44;24.10;99.90
12688;DHT22;6408;59.388;17.798;2023-09-08T13:32:11;23.90;99.90
12688;DHT22;6408;59.388;17.798;2023-09-08T13:34:38;23.90;99.90
12688;DHT22;6408;59.388;17.798;2023-09-08T13:37:05;23.80;99.90
12688;DHT22;6408;59.388;17.798;2023-09-08T13:39:35;23.80;99.90
12688;DHT22;6408;59.388;17.798;2023-09-08T13:42:03;23.70;99.90
12688;DHT22;6408;59.388;17.798;2023-09-08T13:44:30;23.70;99.90
12688;DHT22;6408;59.388;17.798;2023-09-08T13:46:57;23.70;99.90
12688;DHT22;6408;59.388;17.798;2023-09-08T13:49:26;23.50;99.90
12688;DHT22;6408;59.388;17.798;2023-09-08T13:51:53;23.50;99.90
12688;DHT22;6408;59.388;17.798;2023-09-08T13:54:20;23.60;99.90
12688;DHT22;6408;59.388;17.798;2023-09-08T13:56:57;23.70;99.90
12688;DHT22;6408;59.388;17.798;2023-09-08T13:59:27;23.70;99.90
12688;DHT22;6408;59.388;17.798;2023-09-08T14:01:55;23.70;99.90
12688;DHT22;6408;59.388;17.798;2023-09-08T14:04:23;23.80;99.90
12688;DHT22;6408;59.388;17.798;2023-09-08T14:06:50;23.80;99.90
12688;DHT22;6408;59.388;17.798;2023-09-08T14:09:17;23.80;99.90
12688;DHT22;6408;59.388;17.798;2023-09-08T14:11:45;23.80;99.90
12688;DHT22;6408;59.388;17.798;2023-09-08T14:14:12;23.70;99.90
12688;DHT22;6408;59.388;17.798;2023-09-08T14:16:41;23.70;99.90
12688;DHT22;6408;59.388;17.798;2023-09-08T14:19:08;23.60;99.90
12688;DHT22;6408;59.388;17.798;2023-09-08T14:21:35;23.50;99.90
12688;DHT22;6408;59.388;17.798;2023-09-08T14:24:03;23.50;99.90
12688;DHT22;6408;59.388;17.798;2023-09-08T14:26:30;23.40;99.90
12688;DHT22;6408;59.388;17.798;2023-09-08T14:28:57;23.40;99.90
12688;DHT22;6408;59.388;17.798;2023-09-08T14:31:24;23.30;99.90
12688;DHT22;6408;59.388;17.798;2023-09-08T14:33:53;23.30;99.90
12688;DHT22;6408;59.388;17.798;2023-09-08T14:36:20;23.30;99.90
12688;DHT22;6408;59.388;17.798;2023-09-08T14:38:48;23.30;99.90
12688;DHT22;6408;59.388;17.798;2023-09-08T14:41:15;23.30;99.90
12688;DHT22;6408;59.388;17.798;2023-09-08T14:43:42;23.30;99.90
12688;DHT22;6408;59.388;17.798;2023-09-08T14:46:09;23.30;99.90
12688;DHT22;6408;59.388;17.798;2023-09-08T14:48:36;23.30;99.90
12688;DHT22;6408;59.388;17.798;2023-09-08T14:51:04;23.20;99.90
12688;DHT22;6408;59.388;17.798;2023-09-08T14:53:31;23.20;99.90
12688;DHT22;6408;59.388;17.798;2023-09-08T14:55:58;23.10;99.90
12688;DHT22;6408;59.388;17.798;2023-09-08T14:58:26;23.10;99.90
12688;DHT22;6408;59.388;17.798;2023-09-08T15:01:00;23.20;99.90
12688;DHT22;6408;59.388;17.798;2023-09-08T15:03:34;23.30;99.90
12688;DHT22;6408;59.388;17.798;2023-09-08T15:06:05;23.30;99.90
12688;DHT22;6408;59.388;17.798;2023-09-08T15:08:38;23.30;99.90
12688;DHT22;6408;59.388;17.798;2023-09-08T15:11:12;23.30;99.90
12688;DHT22;6408;59.388;17.798;2023-09-08T15:13:45;23.10;99.90
12688;DHT22;6408;59.388;17.798;2023-09-08T15:16:28;22.90;99.90
12688;DHT22;6408;59.388;17.798;2023-09-08T15:19:25;22.80;99.90
12688;DHT22;6408;59.388;17.798;2023-09-08T15:22:07;22.60;99.90
12688;DHT22;6408;59.388;17.798;2023-09-08T15:24:45;22.50;99.90
12688;DHT22;6408;59.388;17.798;2023-09-08T15:27:16;22.30;99.90
12688;DHT22;6408;59.388;17.798;2023-09-08T15:29:51;22.30;99.90
12688;DHT22;6408;59.388;17.798;2023-09-08T15:32:32;22.20;99.90
12688;DHT22;6408;59.388;17.798;2023-09-08T15:35:11;22.10;99.90
12688;DHT22;6408;59.388;17.798;2023-09-08T15:38:00;22.00;99.90
12688;DHT22;6408;59.388;17.798;2023-09-08T15:40:39;22.00;99.90
12688;DHT22;6408;59.388;17.798;2023-09-08T15:43:22;22.00;99.90
12688;DHT22;6408;59.388;17.798;2023-09-08T15:45:49;21.90;99.90
12688;DHT22;6408;59.388;17.798;2023-09-08T15:48:16;21.90;99.90
12688;DHT22;6408;59.388;17.798;2023-09-08T15:50:44;21.90;99.90
12688;DHT22;6408;59.388;17.798;2023-09-08T15:53:12;21.90;99.90
12688;DHT22;6408;59.388;17.798;2023-09-08T15:55:39;21.80;99.90
12688;DHT22;6408;59.388;17.798;2023-09-08T15:58:06;21.70;99.90
12688;DHT22;6408;59.388;17.798;2023-09-08T16:00:38;21.70;99.90
12688;DHT22;6408;59.388;17.798;2023-09-08T16:03:05;21.70;99.90
12688;DHT22;6408;59.388;17.798;2023-09-08T16:05:32;21.70;99.90
12688;DHT22;6408;59.388;17.798;2023-09-08T16:07:59;21.60;99.90
12688;DHT22;6408;59.388;17.798;2023-09-08T16:10:29;21.60;99.90
12688;DHT22;6408;59.388;17.798;2023-09-08T16:12:56;21.60;99.90
12688;DHT22;6408;59.388;17.798;2023-09-08T16:15:26;21.60;99.90
12688;DHT22;6408;59.388;17.798;2023-09-08T16:17:53;21.60;99.90
12688;DHT22;6408;59.388;17.798;2023-09-08T16:20:20;21.60;99.90
12688;DHT22;6408;59.388;17.798;2023-09-08T16:22:48;21.50;99.90
12688;DHT22;6408;59.388;17.798;2023-09-08T16:25:15;21.50;99.90
12688;DHT22;6408;59.388;17.798;2023-09-08T16:27:43;21.50;99.90
12688;DHT22;6408;59.388;17.798;2023-09-08T16:30:14;21.40;99.90
12688;DHT22;6408;59.388;17.798;2023-09-08T16:32:41;21.50;99.90
12688;DHT22;6408;59.388;17.798;2023-09-08T16:35:08;21.40;99.90
12688;DHT22;6408;59.388;17.798;2023-09-08T16:37:35;21.40;99.90
12688;DHT22;6408;59.388;17.798;2023-09-08T16:40:03;21.30;99.90
12688;DHT22;6408;59.388;17.798;2023-09-08T16:42:30;21.30;99.90
12688;DHT22;6408;59.388;17.798;2023-09-08T16:44:58;21.20;99.90
12688;DHT22;6408;59.388;17.798;2023-09-08T16:47:25;21.10;99.90
12688;DHT22;6408;59.388;17.798;2023-09-08T16:49:52;21.00;99.90
12688;DHT22;6408;59.388;17.798;2023-09-08T16:52:20;20.90;99.90
12688;DHT22;6408;59.388;17.798;2023-09-08T16:54:47;21.00;99.90
12688;DHT22;6408;59.388;17.798;2023-09-08T16:57:15;20.90;99.90
12688;DHT22;6408;59.388;17.798;2023-09-08T16:59:42;20.80;99.90
12688;DHT22;6408;59.388;17.798;2023-09-08T17:02:10;20.80;99.90
12688;DHT22;6408;59.388;17.798;2023-09-08T17:04:37;20.70;99.90
12688;DHT22;6408;59.388;17.798;2023-09-08T17:07:09;20.70;99.90
12688;DHT22;6408;59.388;17.798;2023-09-08T17:09:36;20.70;99.90
12688;DHT22;6408;59.388;17.798;2023-09-08T17:12:04;20.70;99.90
12688;DHT22;6408;59.388;17.798;2023-09-08T17:14:33;20.60;99.90
12688;DHT22;6408;59.388;17.798;2023-09-08T17:17:00;20.60;99.90
12688;DHT22;6408;59.388;17.798;2023-09-08T17:19:29;20.50;99.90
12688;DHT22;6408;59.388;17.798;2023-09-08T17:21:56;20.50;99.90
12688;DHT22;6408;59.388;17.798;2023-09-08T17:24:23;20.50;99.90
12688;DHT22;6408;59.388;17.798;2023-09-08T17:26:51;20.40;99.90
12688;DHT22;6408;59.388;17.798;2023-09-08T17:29:19;20.30;99.90
12688;DHT22;6408;59.388;17.798;2023-09-08T17:31:46;20.20;99.90
12688;DHT22;6408;59.388;17.798;2023-09-08T17:34:18;20.10;99.90
12688;DHT22;6408;59.388;17.798;2023-09-08T17:36:47;20.10;99.90
12688;DHT22;6408;59.388;17.798;2023-09-08T17:39:18;20.00;99.90
12688;DHT22;6408;59.388;17.798;2023-09-08T17:41:45;19.90;99.90
12688;DHT22;6408;59.388;17.798;2023-09-08T17:44:13;19.90;99.90
12688;DHT22;6408;59.388;17.798;2023-09-08T17:46:41;19.90;99.90
12688;DHT22;6408;59.388;17.798;2023-09-08T17:49:08;19.90;99.90
12688;DHT22;6408;59.388;17.798;2023-09-08T17:51:36;19.80;99.90
12688;DHT22;6408;59.388;17.798;2023-09-08T17:54:05;19.80;99.90
12688;DHT22;6408;59.388;17.798;2023-09-08T17:56:32;19.70;99.90
12688;DHT22;6408;59.388;17.798;2023-09-08T17:58:59;19.70;99.90
12688;DHT22;6408;59.388;17.798;2023-09-08T18:01:27;19.70;99.90
12688;DHT22;6408;59.388;17.798;2023-09-08T18:03:54;19.70;99.90
12688;DHT22;6408;59.388;17.798;2023-09-08T18:06:21;19.60;99.90
12688;DHT22;6408;59.388;17.798;2023-09-08T18:08:48;19.50;99.90
12688;DHT22;6408;59.388;17.798;2023-09-08T18:11:18;19.50;99.90
12688;DHT22;6408;59.388;17.798;2023-09-08T18:13:46;19.40;99.90
12688;DHT22;6408;59.388;17.798;2023-09-08T18:16:14;19.40;99.90